Time;durP1;ratioP1;P1;durP2;ratioP2;P2;SDS_P1;SDS_P2;PMS_P1;PMS_P2;Temp;Humidity;BMP_temperature;BMP_pressure;BME280_temperature;BME280_humidity;BME280_pressure;Samples;Min_cycle;Max_cycle;Signal;HPM_P1;HPM_P2
2022/06/08 00:03:16;;;;;;;8.30;7.50;;;;;;;17.00;77.47;99442.91;216035;1274;139689;-64
2022/06/08 00:08:21;;;;;;;9.00;7.90;;;;;;;17.05;77.41;99439.20;216107;1272;139552;-63
2022/06/08 00:13:30;;;;;;;8.20;7.50;;;;;;;16.91;77.17;99436.09;216058;1273;139975;-65
2022/06/08 00:18:41;;;;;;;8.60;7.80;;;;;;;16.80;77.16;99434.46;215671;1274;139100;-65
2022/06/08 00:23:48;;;;;;;8.90;8.00;;;;;;;16.64;77.22;99429.05;215332;1275;141692;-64
2022/06/08 00:28:53;;;;;;;9.00;8.20;;;;;;;16.65;77.70;99419.10;214233;1274;140844;-66
2022/06/08 00:33:58;;;;;;;10.80;9.80;;;;;;;16.72;77.95;99413.39;213775;1274;141417;-63
2022/06/08 00:39:04;;;;;;;9.70;8.80;;;;;;;16.76;78.08;99410.09;214157;1274;140929;-65
2022/06/08 00:44:18;;;;;;;11.20;10.20;;;;;;;16.75;77.90;99411.75;213478;1275;140770;-64
2022/06/08 00:49:43;;;;;;;13.40;10.60;;;;;;;16.72;77.74;99409.63;213510;1272;141327;-63
2022/06/08 00:54:54;;;;;;;10.90;9.60;;;;;;;16.60;77.84;99408.02;214190;1275;141579;-64
2022/06/08 01:00:10;;;;;;;14.80;11.40;;;;;;;16.57;77.96;99408.31;213628;1274;140632;-63
2022/06/08 01:05:23;;;;;;;;;;;;;;;16.51;77.90;99402.12;214928;1276;140199;-64
2022/06/08 01:10:34;;;;;;;11.00;9.90;;;;;;;16.56;78.46;99391.48;214695;1272;127512;-62
2022/06/08 01:15:41;;;;;;;14.80;11.90;;;;;;;16.62;78.29;99383.19;214426;1274;140160;-63
2022/06/08 01:20:51;;;;;;;12.90;11.50;;;;;;;16.62;78.14;99380.72;214930;1274;140806;-62
2022/06/08 01:26:00;;;;;;;18.40;13.10;;;;;;;16.59;78.23;99374.82;214834;1274;141205;-63
2022/06/08 01:31:16;;;;;;;15.80;13.30;;;;;;;16.59;78.33;99372.17;214479;1274;140751;-62
2022/06/08 01:36:27;;;;;;;15.20;13.50;;;;;;;16.58;78.06;99372.35;214121;1274;141285;-63
2022/06/08 01:41:58;;;;;;;13.80;12.00;;;;;;;16.58;78.32;99373.98;213693;1274;141771;-63
2022/06/08 01:47:27;;;;;;;16.00;13.50;;;;;;;16.60;78.32;99377.60;215062;1274;140744;-62
2022/06/08 01:53:07;;;;;;;14.40;12.10;;;;;;;16.49;77.98;99387.34;213630;1274;142052;-61
2022/06/08 01:58:58;;;;;;;12.00;10.80;;;;;;;16.42;78.41;99396.39;215291;1274;139462;-63
2022/06/08 02:04:25;;;;;;;12.60;11.30;;;;;;;16.49;78.54;99395.96;216186;1272;140947;-63
2022/06/08 02:09:29;;;;;;;;;;;;;;;16.52;78.41;99404.05;215404;1274;141875;-64
2022/06/08 02:14:38;;;;;;;17.40;13.30;;;;;;;16.49;78.60;99398.21;215218;1274;709280;-65
2022/06/08 02:19:48;;;;;;;14.70;11.40;;;;;;;16.53;78.41;99396.89;215490;1272;140722;-64
2022/06/08 02:25:21;;;;;;;14.70;13.10;;;;;;;16.46;78.53;99401.05;214136;1271;139532;-65
2022/06/08 02:30:29;;;;;;;15.20;13.50;;;;;;;16.48;78.61;99407.55;214674;1274;139530;-65
2022/06/08 02:35:41;;;;;;;17.00;14.40;;;;;;;16.50;78.78;99413.32;215147;1274;140580;-65
2022/06/08 02:40:55;;;;;;;13.50;11.60;;;;;;;16.52;78.67;99410.83;214546;1274;141372;-64
2022/06/08 02:46:19;;;;;;;15.60;12.00;;;;;;;16.58;78.92;99412.99;213560;1274;141412;-64
2022/06/08 02:51:30;;;;;;;20.90;14.40;;;;;;;16.60;78.83;99421.64;214151;1274;142514;-65
2022/06/08 02:56:55;;;;;;;14.90;13.40;;;;;;;16.61;78.93;99420.40;214046;1274;141367;-65
2022/06/08 03:02:03;;;;;;;17.10;14.30;;;;;;;16.67;79.21;99411.13;213842;1274;143699;-64
2022/06/08 03:07:15;;;;;;;16.10;14.50;;;;;;;16.70;79.23;99404.70;213660;1273;141910;-64
2022/06/08 03:12:36;;;;;;;17.30;15.40;;;;;;;16.73;79.30;99406.06;213706;1276;211225;-64
2022/06/08 03:17:47;;;;;;;19.50;15.60;;;;;;;16.74;79.11;99406.05;213422;1274;141618;-64
2022/06/08 03:22:54;;;;;;;17.50;15.50;;;;;;;16.74;79.16;99408.20;213286;1274;141119;-65
2022/06/08 03:27:59;;;;;;;19.90;14.80;;;;;;;16.74;79.21;99413.38;214438;1274;141590;-64
2022/06/08 03:33:03;;;;;;;17.40;15.70;;;;;;;16.78;79.53;99410.64;215007;1274;141573;-65
2022/06/08 03:38:08;;;;;;;17.80;13.50;;;;;;;16.92;79.60;99417.19;215651;1274;140683;-64
2022/06/08 03:43:14;;;;;;;18.40;16.00;;;;;;;17.02;79.51;99425.39;213425;1273;140612;-64
2022/06/08 03:48:20;;;;;;;18.50;13.60;;;;;;;17.06;79.47;99425.09;213215;1274;139734;-65
2022/06/08 03:53:29;;;;;;;20.10;18.00;;;;;;;17.08;79.35;99422.10;215288;1274;141924;-64
2022/06/08 03:58:35;;;;;;;19.40;17.40;;;;;;;17.16;79.58;99424.27;215270;1272;140573;-65
2022/06/08 04:03:40;;;;;;;21.30;16.80;;;;;;;17.21;79.43;99426.33;216135;1274;141066;-66
2022/06/08 04:08:44;;;;;;;22.70;18.00;;;;;;;17.27;79.42;99422.54;216033;1273;141399;-67
2022/06/08 04:13:48;;;;;;;20.70;16.80;;;;;;;17.32;79.33;99415.06;216026;1274;140871;-66
2022/06/08 04:18:54;;;;;;;21.00;17.20;;;;;;;17.39;79.28;99410.13;215772;1274;140552;-65
2022/06/08 04:24:02;;;;;;;19.30;17.30;;;;;;;17.47;79.33;99407.33;214198;1274;141331;-64
2022/06/08 04:29:08;;;;;;;17.90;16.00;;;;;;;17.51;79.36;99409.53;214402;1274;140232;-64
2022/06/08 04:34:13;;;;;;;17.90;15.40;;;;;;;17.57;79.04;99407.11;214138;1274;139713;-64
2022/06/08 04:39:18;;;;;;;14.70;13.30;;;;;;;17.55;78.86;99398.08;213633;1274;140138;-64
2022/06/08 04:44:22;;;;;;;14.30;12.90;;;;;;;17.56;78.90;99402.69;214348;1274;140988;-66
2022/06/08 04:49:30;;;;;;;15.30;13.60;;;;;;;17.62;78.95;99405.96;213718;1274;140296;-64
2022/06/08 04:54:35;;;;;;;15.70;14.10;;;;;;;17.69;78.96;99409.58;214214;1274;140790;-64
2022/06/08 04:59:47;;;;;;;13.70;12.30;;;;;;;17.70;78.81;99414.95;214626;1274;140277;-65
2022/06/08 05:04:57;;;;;;;14.10;12.70;;;;;;;17.80;79.13;99412.92;212834;1274;161730;-66
2022/06/08 05:10:03;;;;;;;14.30;11.60;;;;;;;17.87;78.68;99415.20;213437;1274;141007;-65
2022/06/08 05:15:10;;;;;;;15.90;12.10;;;;;;;17.93;78.59;99423.66;214461;1274;140164;-65
2022/06/08 05:20:16;;;;;;;10.30;9.20;;;;;;;18.01;78.65;99423.65;214741;1274;142109;-64
2022/06/08 05:25:33;;;;;;;14.40;9.90;;;;;;;18.26;78.49;99419.61;214035;1274;140535;-65
2022/06/08 05:30:40;;;;;;;10.90;9.90;;;;;;;18.63;78.08;99422.19;213270;1274;139470;-67
2022/06/08 05:35:44;;;;;;;9.50;8.60;;;;;;;18.77;77.72;99425.35;215144;1274;232702;-66
2022/06/08 05:40:49;;;;;;;10.50;9.50;;;;;;;18.79;77.43;99428.88;215376;1274;140367;-66
2022/06/08 05:45:54;;;;;;;9.30;7.30;;;;;;;18.78;77.05;99425.66;215889;1274;139984;-64
2022/06/08 05:50:59;;;;;;;8.80;8.00;;;;;;;18.89;77.24;99427.98;214262;1274;140036;-65
2022/06/08 05:56:03;;;;;;;8.80;8.00;;;;;;;19.04;76.99;99427.27;216206;1274;140730;-65
2022/06/08 06:01:09;;;;;;;9.10;8.30;;;;;;;19.17;76.57;99423.25;216126;1274;139775;-65
2022/06/08 06:06:14;;;;;;;8.60;7.80;;;;;;;19.28;76.14;99427.04;215554;1274;140332;-64
2022/06/08 06:11:19;;;;;;;9.00;6.70;;;;;;;19.34;75.84;99435.02;215269;1274;139763;-64
2022/06/08 06:16:25;;;;;;;6.90;5.90;;;;;;;19.38;75.62;99438.45;214317;1272;140288;-65
2022/06/08 06:21:31;;;;;;;8.50;7.60;;;;;;;19.33;75.15;99435.14;215794;1274;138980;-65
2022/06/08 06:26:36;;;;;;;8.50;7.50;;;;;;;19.40;75.48;99428.11;215168;1274;140005;-64
2022/06/08 06:31:44;;;;;;;8.20;7.50;;;;;;;19.94;75.37;99429.89;214626;1274;140733;-65
2022/06/08 06:36:49;;;;;;;9.80;8.90;;;;;;;20.39;74.52;99426.29;214266;1274;141502;-64
2022/06/08 06:41:55;;;;;;;7.70;6.90;;;;;;;20.63;74.12;99425.14;213239;1274;139081;-65
2022/06/08 06:47:00;;;;;;;8.20;7.40;;;;;;;20.60;73.78;99429.52;214967;1274;207280;-65
2022/06/08 06:52:05;;;;;;;9.90;8.80;;;;;;;20.51;73.60;99426.61;213617;1274;139783;-65
2022/06/08 06:57:09;;;;;;;11.20;10.10;;;;;;;20.42;73.38;99421.56;213883;1274;139823;-64
2022/06/08 07:02:17;;;;;;;12.20;9.60;;;;;;;20.51;73.19;99420.59;214274;1274;139600;-65
2022/06/08 07:07:22;;;;;;;10.70;9.70;;;;;;;20.72;73.16;99416.02;213338;1274;140455;-65
2022/06/08 07:12:26;;;;;;;9.40;8.60;;;;;;;20.87;72.69;99420.73;214084;1274;140267;-63
2022/06/08 07:17:31;;;;;;;8.80;8.00;;;;;;;20.81;72.28;99422.06;214424;1274;139353;-64
2022/06/08 07:22:37;;;;;;;8.00;7.20;;;;;;;20.75;72.04;99414.21;214912;1274;140342;-65
2022/06/08 07:27:46;;;;;;;7.90;7.30;;;;;;;20.96;72.23;99414.21;214468;1274;139454;-64
2022/06/08 07:32:52;;;;;;;9.90;8.90;;;;;;;21.30;72.22;99411.11;215154;1274;140189;-65
2022/06/08 07:37:55;;;;;;;9.60;8.70;;;;;;;21.47;71.33;99415.77;215388;1274;139889;-64
2022/06/08 07:42:59;;;;;;;7.50;6.80;;;;;;;21.71;71.00;99415.84;215267;1274;139972;-65
2022/06/08 07:53:26;;;;;;;6.70;6.10;;;;;;;22.67;69.36;99412.21;215832;1275;140401;-64
2022/06/08 07:58:32;;;;;;;6.50;6.00;;;;;;;23.38;68.85;99418.28;214956;1275;139835;-64
2022/06/08 08:03:37;;;;;;;6.70;6.10;;;;;;;24.29;67.24;99418.67;216113;1274;139717;-64
2022/06/08 08:08:43;;;;;;;5.70;5.30;;;;;;;24.73;66.52;99416.96;215878;1274;141053;-65
2022/06/08 08:13:49;;;;;;;6.10;5.60;;;;;;;25.26;66.16;99416.55;216165;1274;140773;-64
2022/06/08 08:18:53;;;;;;;5.60;5.10;;;;;;;25.38;64.38;99414.14;215946;1274;140226;-65
2022/06/08 08:23:59;;;;;;;5.50;4.90;;;;;;;25.02;63.12;99421.92;215000;1277;139450;-65
2022/06/08 08:29:05;;;;;;;5.70;4.00;;;;;;;24.95;62.96;99422.04;215054;1274;140045;-64
2022/06/08 08:34:10;;;;;;;;;;;;;;;25.01;61.88;99428.80;215001;1274;140096;-64
2022/06/08 08:39:15;;;;;;;5.40;4.80;;;;;;;24.65;61.24;99433.52;214934;1274;126820;-65
2022/06/08 08:44:38;;;;;;;4.20;3.90;;;;;;;24.51;61.73;99425.24;213324;1277;160541;-66
2022/06/08 08:50:20;;;;;;;3.50;3.30;;;;;;;24.77;61.59;99412.36;214451;1274;140040;-64
2022/06/08 08:55:43;;;;;;;4.00;3.70;;;;;;;24.55;60.66;99415.89;213443;1274;139686;-66
2022/06/08 09:01:13;;;;;;;4.00;3.70;;;;;;;24.33;60.51;99411.60;214006;1274;139419;-64
2022/06/08 09:06:23;;;;;;;5.80;4.40;;;;;;;24.37;61.01;99411.28;214248;1274;139559;-64
2022/06/08 09:11:34;;;;;;;5.10;4.80;;;;;;;24.24;60.89;99418.64;213211;1275;140425;-68
2022/06/08 09:16:47;;;;;;;5.50;5.10;;;;;;;24.00;60.98;99422.85;213274;1274;139108;-66
2022/06/08 09:21:55;;;;;;;5.40;5.00;;;;;;;23.78;61.05;99422.48;214525;1277;139616;-64
2022/06/08 09:27:14;;;;;;;5.30;4.80;;;;;;;23.65;61.33;99422.05;215102;1276;140617;-65
2022/06/08 09:32:27;;;;;;;5.10;4.80;;;;;;;23.54;61.64;99423.09;213244;1274;139862;-67
2022/06/08 09:37:33;;;;;;;3.60;3.40;;;;;;;23.65;61.46;99417.24;215425;1274;140702;-66
2022/06/08 09:43:01;;;;;;;5.00;4.60;;;;;;;23.73;61.23;99410.48;214767;1274;139885;-64
2022/06/08 09:54:25;;;;;;;4.70;4.40;;;;;;;23.58;60.51;99407.29;216077;1274;140602;-65
2022/06/08 09:59:44;;;;;;;5.40;5.00;;;;;;;23.42;60.63;99407.89;216125;1274;140067;-64
2022/06/08 10:05:10;;;;;;;4.60;4.40;;;;;;;23.59;61.03;99406.58;215868;1274;141368;-65
2022/06/08 10:10:29;;;;;;;5.10;4.80;;;;;;;23.50;60.97;99406.65;214939;1277;139577;-65
2022/06/08 10:15:46;;;;;;;5.80;4.90;;;;;;;23.10;61.46;99405.11;215134;1277;138612;-65
2022/06/08 10:20:55;;;;;;;;;;;;;;;22.94;61.95;99397.15;214803;1276;141463;-66
2022/06/08 10:26:15;;;;;;;6.10;5.70;;;;;;;22.88;62.47;99398.05;214475;1276;127557;-67
2022/06/08 10:31:36;;;;;;;6.40;5.70;;;;;;;22.87;62.23;99395.14;214262;1277;140988;-65
2022/06/08 10:36:44;;;;;;;5.00;4.70;;;;;;;22.73;62.03;99390.47;215007;1277;140680;-65
2022/06/08 10:42:40;;;;;;;6.20;5.70;;;;;;;22.65;62.40;99390.21;214358;1276;139952;-63
2022/06/08 10:48:15;;;;;;;5.70;5.30;;;;;;;22.53;62.69;99390.64;214786;1274;140404;-65
2022/06/08 10:59:07;;;;;;;5.60;5.20;;;;;;;22.56;63.49;99386.89;213903;1274;141308;-66
2022/06/08 11:04:35;;;;;;;6.90;6.30;;;;;;;22.56;64.11;99381.59;213824;1274;140445;-64
2022/06/08 11:09:48;;;;;;;6.50;5.90;;;;;;;22.67;63.78;99382.20;214599;1277;139318;-64
2022/06/08 11:15:22;;;;;;;5.80;5.40;;;;;;;22.75;63.96;99385.11;214000;1275;140064;-65
2022/06/08 11:20:41;;;;;;;6.30;5.80;;;;;;;22.84;63.62;99381.14;214204;1274;139967;-65
2022/06/08 11:26:10;;;;;;;6.10;5.00;;;;;;;22.89;63.38;99382.25;213403;1277;139111;-65
2022/06/08 11:31:29;;;;;;;5.70;5.30;;;;;;;22.73;63.11;99377.05;213468;1276;139838;-65
2022/06/08 11:36:58;;;;;;;6.00;5.40;;;;;;;22.42;63.38;99378.34;214489;1277;139722;-63
2022/06/08 11:42:22;;;;;;;5.50;4.70;;;;;;;22.31;63.99;99377.96;214233;1274;140666;-66
2022/06/08 11:47:35;;;;;;;4.30;4.00;;;;;;;22.21;64.01;99377.89;215217;1276;139871;-64
2022/06/08 11:52:46;;;;;;;4.50;4.20;;;;;;;22.15;64.17;99382.39;215660;1274;139770;-64
2022/06/08 11:58:05;;;;;;;5.60;5.20;;;;;;;22.18;64.26;99380.91;215778;1277;140324;-64
2022/06/08 12:03:34;;;;;;;4.90;4.60;;;;;;;22.27;65.25;99379.09;214834;1276;139003;-64
2022/06/08 12:09:15;;;;;;;5.50;5.10;;;;;;;22.45;64.97;99372.91;215973;1276;140544;-66
2022/06/08 12:14:27;;;;;;;4.90;4.50;;;;;;;22.50;65.08;99370.89;215619;1275;140748;-65
2022/06/08 12:19:43;;;;;;;5.90;5.40;;;;;;;22.58;65.27;99367.98;215148;1276;139902;-64
2022/06/08 12:25:21;;;;;;;7.40;4.70;;;;;;;22.60;64.95;99362.98;214394;1274;140057;-65
2022/06/08 12:30:30;;;;;;;3.40;3.20;;;;;;;22.53;65.12;99362.33;214258;1277;140814;-65
2022/06/08 12:35:50;;;;;;;5.30;4.80;;;;;;;22.35;65.09;99362.98;213440;1276;141677;-65
2022/06/08 12:41:02;;;;;;;5.70;5.30;;;;;;;22.20;65.71;99361.55;213336;1276;139367;-66
2022/06/08 12:46:13;;;;;;;5.40;5.00;;;;;;;22.11;66.24;99358.27;214836;1276;140576;-66
2022/06/08 12:51:32;;;;;;;5.50;5.00;;;;;;;22.03;66.02;99352.70;213759;1276;140078;-67
2022/06/08 12:56:38;;;;;;;6.30;5.90;;;;;;;21.82;66.41;99351.59;214412;1274;141297;-65
2022/06/08 13:01:44;;;;;;;8.40;5.00;;;;;;;21.88;66.90;99350.39;214559;1274;139752;-65
2022/06/08 13:06:49;;;;;;;4.80;4.50;;;;;;;21.92;67.08;99349.95;213820;1274;141005;-63
2022/06/08 13:11:57;;;;;;;5.70;5.30;;;;;;;22.01;67.11;99345.59;215729;1274;140096;-64
2022/06/08 13:17:01;;;;;;;4.50;4.10;;;;;;;22.21;67.06;99337.80;214136;1274;139650;-63
2022/06/08 13:22:07;;;;;;;4.50;4.10;;;;;;;22.41;67.03;99335.88;214143;1274;141334;-64
2022/06/08 13:27:16;;;;;;;4.20;3.90;;;;;;;22.64;66.52;99331.95;214116;1276;140084;-65
2022/06/08 13:32:21;;;;;;;4.70;4.30;;;;;;;23.00;66.47;99328.17;214023;1274;139765;-63
2022/06/08 13:37:36;;;;;;;4.20;3.90;;;;;;;23.06;65.67;99322.71;214658;1274;139748;-64
2022/06/08 13:42:44;;;;;;;3.80;3.50;;;;;;;23.12;65.49;99324.13;214633;1274;142853;-66
2022/06/08 13:47:54;;;;;;;4.20;3.90;;;;;;;23.35;65.23;99320.64;214810;1274;139819;-64
2022/06/08 13:53:01;;;;;;;4.40;4.00;;;;;;;23.42;64.49;99320.69;215484;1274;141146;-65
2022/06/08 13:58:09;;;;;;;4.10;3.80;;;;;;;23.45;63.98;99319.71;215766;1274;140144;-65
2022/06/08 14:03:20;;;;;;;3.70;3.50;;;;;;;23.40;63.66;99318.98;216224;1274;140192;-63
2022/06/08 14:13:53;;;;;;;4.90;4.50;;;;;;;23.18;63.63;99308.88;214795;1275;461422;-63
2022/06/08 14:19:01;;;;;;;5.30;3.80;;;;;;;23.09;63.46;99306.80;215050;1275;140720;-63
2022/06/08 14:24:06;;;;;;;4.70;4.40;;;;;;;22.98;63.96;99303.63;214851;1274;140683;-62
2022/06/08 14:29:14;;;;;;;5.00;4.60;;;;;;;22.92;64.20;99300.59;213103;1274;141259;-65
2022/06/08 14:34:25;;;;;;;4.60;4.20;;;;;;;22.77;63.85;99295.48;214426;1274;140010;-63
2022/06/08 14:39:36;;;;;;;4.40;4.00;;;;;;;22.59;63.82;99290.59;214382;1272;139511;-65
2022/06/08 14:44:42;;;;;;;3.80;3.60;;;;;;;22.49;64.07;99288.09;214780;1274;139430;-64
2022/06/08 14:49:48;;;;;;;5.00;4.60;;;;;;;22.45;64.18;99280.80;213499;1274;140051;-63
2022/06/08 14:54:54;;;;;;;;;;;;;;;22.32;64.18;99280.38;213181;1271;139037;-63
2022/06/08 15:00:13;;;;;;;5.30;4.90;;;;;;;21.94;64.67;99266.63;215404;1273;125725;-63
2022/06/08 15:05:23;;;;;;;5.20;4.80;;;;;;;21.61;65.25;99268.88;213870;1274;138984;-64
2022/06/08 15:11:57;;;;;;;5.30;4.30;;;;;;;21.48;65.84;99266.67;213677;1272;139569;-65
2022/06/08 15:16:00;;;;;;;5.30;4.90;;;;;;;21.38;66.04;99255.08;214583;1274;139497;-63
2022/06/08 15:21:07;;;;;;;4.70;4.40;;;;;;;21.27;66.31;99257.23;214298;1274;139331;-63
2022/06/08 15:26:14;;;;;;;6.30;5.90;;;;;;;21.28;66.68;99259.39;214100;1274;140038;-63
2022/06/08 15:31:21;;;;;;;5.70;4.00;;;;;;;21.41;66.80;99262.95;214046;1274;140927;-65
2022/06/08 15:36:27;;;;;;;11.40;5.10;;;;;;;21.39;66.66;99270.29;215161;1274;237532;-65
2022/06/08 15:41:32;;;;;;;5.50;5.00;;;;;;;21.35;66.87;99275.45;214528;1272;139567;-64
2022/06/08 15:46:42;;;;;;;4.80;4.40;;;;;;;21.31;67.13;99271.40;214551;1274;141576;-63
2022/06/08 15:51:48;;;;;;;5.60;5.10;;;;;;;21.23;67.03;99265.05;214829;1274;140233;-65
2022/06/08 15:57:01;;;;;;;5.70;5.30;;;;;;;21.16;67.21;99263.77;214268;1274;141342;-63
2022/06/08 16:02:08;;;;;;;6.40;4.60;;;;;;;21.09;67.36;99262.14;216214;1272;138802;-64
2022/06/08 16:07:13;;;;;;;6.10;5.60;;;;;;;21.14;67.77;99255.83;216058;1274;141480;-64
2022/06/08 16:12:17;;;;;;;6.30;5.10;;;;;;;21.33;68.02;99258.30;216125;1274;140319;-63
2022/06/08 16:17:22;;;;;;;6.70;6.20;;;;;;;21.45;67.82;99249.80;213681;1274;140083;-62
2022/06/08 16:22:28;;;;;;;5.90;5.40;;;;;;;21.41;67.65;99245.40;214526;1274;140920;-63
2022/06/08 16:27:32;;;;;;;6.40;6.00;;;;;;;21.38;67.85;99243.11;213562;1274;140003;-62
2022/06/08 16:32:37;;;;;;;8.30;6.80;;;;;;;21.38;67.90;99233.20;213290;1274;230125;-65
2022/06/08 16:37:43;;;;;;;8.50;6.50;;;;;;;21.38;68.02;99224.55;215243;1274;140592;-62
2022/06/08 16:42:50;;;;;;;6.60;5.70;;;;;;;21.31;68.04;99216.63;213990;1274;140014;-63
2022/06/08 16:48:03;;;;;;;6.90;6.40;;;;;;;21.23;68.26;99215.54;214957;1274;139918;-65
2022/06/08 16:53:08;;;;;;;7.10;6.50;;;;;;;21.35;68.59;99216.35;213795;1274;140005;-66
2022/06/08 17:03:40;;;;;;;7.90;7.30;;;;;;;21.46;68.34;99205.88;214251;1274;139732;-64
2022/06/08 17:08:47;;;;;;;7.40;6.80;;;;;;;21.41;68.57;99209.77;213389;1274;141603;-64
2022/06/08 17:13:53;;;;;;;9.90;9.00;;;;;;;21.38;68.45;99206.48;214512;1274;141039;-67
2022/06/08 17:18:57;;;;;;;7.70;7.00;;;;;;;21.39;68.67;99207.01;214162;1274;139494;-63
2022/06/08 17:24:03;;;;;;;9.30;8.20;;;;;;;21.33;68.52;99209.66;214136;1274;140019;-63
2022/06/08 17:29:09;;;;;;;6.70;6.10;;;;;;;21.28;68.59;99207.19;215063;1274;140946;-63
2022/06/08 17:34:24;;;;;;;7.90;7.10;;;;;;;21.17;68.63;99212.38;215431;1274;140203;-63
2022/06/08 17:39:37;;;;;;;8.70;7.90;;;;;;;21.16;69.07;99211.58;214193;1274;139928;-63
2022/06/08 17:44:44;;;;;;;7.40;6.90;;;;;;;21.17;69.29;99213.65;215916;1272;139639;-63
2022/06/08 17:49:52;;;;;;;7.70;6.90;;;;;;;21.16;69.16;99208.88;213557;1274;222774;-63
2022/06/08 17:54:59;;;;;;;7.50;7.00;;;;;;;20.99;68.95;99206.20;216098;1274;139304;-63
2022/06/08 18:00:09;;;;;;;7.30;6.70;;;;;;;20.90;69.44;99207.00;216231;1272;139265;-63
2022/06/08 18:05:20;;;;;;;6.70;6.20;;;;;;;20.81;69.48;99206.51;216028;1274;140786;-64
2022/06/08 18:10:28;;;;;;;7.50;7.00;;;;;;;20.67;69.92;99203.66;215929;1274;140092;-64
2022/06/08 18:15:35;;;;;;;7.70;7.10;;;;;;;20.70;70.45;99206.55;214587;1274;140335;-63
2022/06/08 18:20:44;;;;;;;8.10;7.40;;;;;;;20.76;70.60;99206.92;215841;1274;140318;-63
2022/06/08 18:25:52;;;;;;;8.30;7.20;;;;;;;20.84;70.74;99204.05;214265;1274;140416;-61
2022/06/08 18:30:58;;;;;;;9.10;8.20;;;;;;;20.91;71.07;99206.15;214160;1274;139420;-64
2022/06/08 18:36:04;;;;;;;8.30;7.50;;;;;;;20.92;70.78;99204.93;214827;1274;140901;-64
2022/06/08 18:41:18;;;;;;;8.90;8.10;;;;;;;20.91;70.98;99220.52;213226;1274;141402;-64
2022/06/08 18:46:23;;;;;;;8.60;7.70;;;;;;;20.75;70.98;99227.97;213346;1274;141096;-64
2022/06/08 18:51:30;;;;;;;8.00;7.20;;;;;;;20.55;71.24;99235.76;213711;1274;141323;-64
2022/06/08 18:56:34;;;;;;;11.30;6.50;;;;;;;20.48;71.38;99233.15;213203;1274;141923;-64
2022/06/08 19:01:40;;;;;;;9.60;8.00;;;;;;;20.30;71.55;99238.84;214395;1274;140388;-64
2022/06/08 19:06:47;;;;;;;;;;;;;;;20.27;72.00;99251.80;214149;1274;140311;-64
2022/06/08 19:11:59;;;;;;;8.20;7.40;;;;;;;20.03;72.04;99249.77;214147;1274;125670;-63
2022/06/08 19:17:04;;;;;;;7.20;6.60;;;;;;;19.90;72.44;99254.08;213571;1274;140489;-63
2022/06/08 19:22:19;;;;;;;8.70;7.80;;;;;;;19.89;72.80;99251.46;213384;1274;140978;-64
2022/06/08 19:27:25;;;;;;;11.70;7.30;;;;;;;19.87;73.16;99252.33;215353;1274;143401;-65
2022/06/08 19:32:35;;;;;;;12.10;7.60;;;;;;;19.83;73.11;99259.15;214743;1274;140966;-65
2022/06/08 19:37:40;;;;;;;8.00;7.30;;;;;;;19.78;73.30;99260.00;214549;1274;141419;-64
2022/06/08 19:42:44;;;;;;;9.80;8.90;;;;;;;19.75;73.35;99257.05;214664;1272;142278;-64
2022/06/08 19:47:48;;;;;;;8.50;7.90;;;;;;;19.75;73.41;99249.15;215160;1274;140975;-63
2022/06/08 19:52:52;;;;;;;9.60;8.70;;;;;;;19.64;73.25;99250.11;216144;1272;150668;-63
2022/06/08 19:58:00;;;;;;;11.10;8.90;;;;;;;19.57;73.46;99245.34;216176;1274;140197;-63
2022/06/08 20:03:04;;;;;;;9.90;8.90;;;;;;;19.56;73.67;99239.17;215922;1274;140861;-65
2022/06/08 20:08:10;;;;;;;8.90;8.00;;;;;;;19.53;73.72;99236.06;215091;1276;141720;-64
2022/06/08 20:13:14;;;;;;;8.10;7.40;;;;;;;19.51;73.89;99230.30;215836;1274;140016;-64
2022/06/08 20:18:21;;;;;;;11.30;9.50;;;;;;;19.49;73.89;99228.02;215489;1274;139614;-64
2022/06/08 20:23:26;;;;;;;9.50;8.50;;;;;;;19.31;73.57;99225.33;214296;1274;140932;-63
2022/06/08 20:28:30;;;;;;;11.00;9.50;;;;;;;19.08;73.94;99231.48;216016;1274;140431;-64
2022/06/08 20:33:35;;;;;;;11.70;9.40;;;;;;;19.07;74.07;99233.13;215042;1274;141057;-62
2022/06/08 20:38:40;;;;;;;8.90;8.00;;;;;;;19.08;74.44;99238.20;214410;1273;142299;-62
2022/06/08 20:43:45;;;;;;;11.70;10.60;;;;;;;19.08;74.36;99247.87;213206;1274;141518;-62
2022/06/08 20:48:50;;;;;;;10.70;9.80;;;;;;;18.91;74.21;99249.73;213857;1274;141649;-65
2022/06/08 20:53:55;;;;;;;9.90;9.00;;;;;;;18.76;74.71;99246.58;214039;1274;140389;-62
2022/06/08 20:59:00;;;;;;;10.20;9.40;;;;;;;18.75;75.11;99251.77;215055;1274;141309;-63
2022/06/08 21:04:06;;;;;;;10.10;9.30;;;;;;;18.74;75.02;99254.82;213659;1274;140270;-64
2022/06/08 21:09:11;;;;;;;10.70;9.60;;;;;;;18.73;75.23;99255.38;213123;1276;140730;-63
2022/06/08 21:14:16;;;;;;;9.60;8.70;;;;;;;18.71;75.20;99257.20;214605;1274;140462;-64
2022/06/08 21:19:41;;;;;;;10.90;9.90;;;;;;;18.61;75.05;99248.54;214288;1274;140756;-64
2022/06/08 21:24:46;;;;;;;10.00;9.10;;;;;;;18.55;75.19;99244.43;214074;1274;140479;-62
2022/06/08 21:29:49;;;;;;;13.80;10.70;;;;;;;18.51;75.23;99229.15;215162;1274;141544;-61
2022/06/08 21:34:56;;;;;;;11.10;10.20;;;;;;;18.51;75.42;99223.12;214839;1274;140228;-61
2022/06/08 21:40:03;;;;;;;12.70;11.50;;;;;;;18.49;75.53;99223.38;214287;1274;139816;-62
2022/06/08 21:45:10;;;;;;;;;;;;;;;18.43;75.44;99225.73;215804;1274;140893;-63
2022/06/08 21:50:18;;;;;;;11.60;10.50;;;;;;;18.33;75.51;99229.92;214060;1274;126498;-62
2022/06/08 21:55:40;;;;;;;13.90;11.30;;;;;;;18.18;75.46;99228.15;215860;1275;141439;-63
2022/06/08 22:00:57;;;;;;;9.90;9.00;;;;;;;18.09;75.65;99229.15;215567;1276;141573;-63
2022/06/08 22:06:03;;;;;;;9.70;8.80;;;;;;;18.10;76.02;99223.20;216121;1274;140782;-63
2022/06/08 22:11:11;;;;;;;11.30;10.10;;;;;;;18.15;76.29;99219.67;215964;1274;139626;-62
2022/06/08 22:16:20;;;;;;;11.40;10.30;;;;;;;18.20;76.26;99213.23;215671;1274;141192;-62
2022/06/08 22:21:25;;;;;;;11.70;10.70;;;;;;;18.20;76.02;99219.26;215246;1274;140772;-62
2022/06/08 22:26:30;;;;;;;13.00;11.70;;;;;;;18.14;75.82;99216.50;213252;1276;141027;-65
2022/06/08 22:31:35;;;;;;;12.50;11.40;;;;;;;18.11;75.95;99210.30;215416;1274;140397;-62
2022/06/08 22:36:42;;;;;;;13.80;12.50;;;;;;;18.07;76.23;99196.88;214451;1274;141773;-64
2022/06/08 22:41:46;;;;;;;16.00;11.60;;;;;;;18.00;76.18;99197.13;213259;1274;140243;-63
2022/06/08 22:46:50;;;;;;;11.30;10.20;;;;;;;17.84;76.23;99186.88;213795;1274;140418;-62
2022/06/08 22:51:56;;;;;;;12.20;11.10;;;;;;;17.76;76.55;99183.23;214280;1274;140327;-62
2022/06/08 22:57:01;;;;;;;12.10;10.90;;;;;;;17.60;76.48;99175.98;213653;1274;143303;-62
2022/06/08 23:02:05;;;;;;;12.50;11.30;;;;;;;17.47;76.79;99174.23;213802;1274;140760;-62
2022/06/08 23:07:09;;;;;;;12.70;11.50;;;;;;;17.50;77.37;99164.80;213541;1276;140910;-64
2022/06/08 23:12:13;;;;;;;12.10;10.90;;;;;;;17.60;77.58;99155.94;213588;1276;140763;-62
2022/06/08 23:22:40;;;;;;;13.10;11.90;;;;;;;17.56;77.36;99156.05;213201;1274;141387;-65
2022/06/08 23:27:45;;;;;;;14.00;12.60;;;;;;;17.48;77.46;99154.66;214150;1274;140951;-63
2022/06/08 23:32:51;;;;;;;12.60;11.40;;;;;;;17.53;77.95;99148.39;215509;1274;140774;-61
2022/06/08 23:37:55;;;;;;;11.60;10.40;;;;;;;17.54;77.68;99143.30;214514;1274;140678;-63
2022/06/08 23:42:58;;;;;;;12.30;11.10;;;;;;;17.48;77.46;99150.73;216096;1274;141767;-62
2022/06/08 23:48:21;;;;;;;13.60;9.70;;;;;;;17.36;77.36;99159.77;216086;1274;142220;-62
2022/06/08 23:53:25;;;;;;;22.80;11.50;;;;;;;17.22;77.49;99171.83;216099;1274;140842;-62
2022/06/08 23:58:31;;;;;;;13.90;12.40;;;;;;;17.19;77.79;99177.89;215788;1274;141592;-62
